Time;durP1;ratioP1;P1;durP2;ratioP2;P2;SDS_P1;SDS_P2;PMS_P1;PMS_P2;Temp;Humidity;BMP_temperature;BMP_pressure;BME280_temperature;BME280_humidity;BME280_pressure;Samples;Min_cycle;Max_cycle;Signal;HPM_P1;HPM_P2
2023/09/28 04:22:32;;;;;;;5.65;4.35;;;;;;;13.20;100.00;100376.50;5089386;28;20397;-71
2023/09/28 04:24:58;;;;;;;4.88;4.32;;;;;;;13.21;100.00;100375.47;5089241;28;20044;-70
2023/09/28 04:27:23;;;;;;;6.72;4.70;;;;;;;13.24;100.00;100374.28;5089394;28;20044;-71
2023/09/28 04:29:49;;;;;;;6.53;4.82;;;;;;;13.25;100.00;100368.75;5089300;28;20109;-70
2023/09/28 04:32:14;;;;;;;6.70;4.75;;;;;;;13.30;100.00;100362.81;5089440;28;20086;-71
2023/09/28 04:34:40;;;;;;;6.53;4.72;;;;;;;13.28;100.00;100364.84;5089070;28;20032;-70
2023/09/28 04:37:05;;;;;;;4.95;4.40;;;;;;;13.26;100.00;100356.19;5089208;28;20071;-71
2023/09/28 04:39:31;;;;;;;5.65;4.07;;;;;;;13.22;100.00;100358.41;5089234;28;20040;-68
2023/09/28 04:41:58;;;;;;;7.28;5.05;;;;;;;13.21;100.00;100358.59;5089084;28;20052;-66
2023/09/28 04:44:23;;;;;;;5.22;4.28;;;;;;;13.21;100.00;100354.06;5088800;28;20036;-65
2023/09/28 04:46:50;;;;;;;5.40;4.15;;;;;;;13.17;100.00;100360.81;5089037;28;20069;-66
2023/09/28 04:49:16;;;;;;;6.68;4.65;;;;;;;13.15;100.00;100368.16;5089049;28;20036;-67
2023/09/28 04:51:42;;;;;;;8.00;5.18;;;;;;;13.11;100.00;100358.06;5088869;28;20093;-67
2023/09/28 04:54:08;;;;;;;7.72;5.78;;;;;;;13.06;100.00;100368.47;5088668;28;20119;-67
2023/09/28 04:56:33;;;;;;;5.35;4.47;;;;;;;12.97;100.00;100368.53;5088673;28;20127;-67
2023/09/28 04:59:02;;;;;;;5.50;4.32;;;;;;;12.95;100.00;100372.44;5088721;28;20082;-67
2023/09/28 05:01:27;;;;;;;4.55;3.90;;;;;;;12.91;100.00;100381.81;5088674;28;20036;-67
2023/09/28 05:03:53;;;;;;;6.05;4.20;;;;;;;12.92;100.00;100386.19;5088475;28;20537;-67
2023/09/28 05:06:19;;;;;;;4.50;4.05;;;;;;;12.94;100.00;100397.50;5088598;28;20035;-67
2023/09/28 05:08:44;;;;;;;5.55;4.47;;;;;;;12.84;100.00;100400.44;5088669;28;20513;-67
2023/09/28 05:11:10;;;;;;;5.97;3.90;;;;;;;12.85;100.00;100412.00;5088582;28;20097;-67
2023/09/28 05:13:35;;;;;;;5.30;4.25;;;;;;;12.74;100.00;100407.94;5088173;28;20043;-67
2023/09/28 05:16:01;;;;;;;5.72;4.38;;;;;;;12.72;100.00;100402.78;5088364;28;20471;-67
2023/09/28 05:18:26;;;;;;;7.57;4.57;;;;;;;12.77;100.00;100412.91;5088427;28;20039;-67
2023/09/28 05:20:51;;;;;;;6.55;4.50;;;;;;;12.79;100.00;100412.72;5088237;28;20055;-67
2023/09/28 05:23:17;;;;;;;5.63;4.57;;;;;;;12.74;100.00;100418.63;5088106;28;20466;-67
2023/09/28 05:25:43;;;;;;;4.78;4.13;;;;;;;12.73;100.00;100425.81;5088161;28;20036;-67
2023/09/28 05:28:08;;;;;;;6.18;4.50;;;;;;;12.69;100.00;100431.69;5088197;28;20036;-66
2023/09/28 05:30:34;;;;;;;5.05;4.30;;;;;;;12.70;100.00;100439.53;5088416;28;20116;-66
2023/09/28 05:33:00;;;;;;;5.75;4.40;;;;;;;12.69;100.00;100453.06;5079610;28;20415;-67
2023/09/28 05:35:25;;;;;;;7.25;4.50;;;;;;;12.69;100.00;100453.91;5064540;28;20047;-67
2023/09/28 05:37:51;;;;;;;4.57;3.88;;;;;;;12.70;100.00;100436.03;5054670;28;20041;-68
2023/09/28 05:40:16;;;;;;;5.13;4.63;;;;;;;12.66;100.00;100442.75;5054517;28;20072;-66
2023/09/28 05:42:42;;;;;;;4.70;3.88;;;;;;;12.69;100.00;100435.19;5054194;28;20044;-67
2023/09/28 05:45:09;;;;;;;6.40;4.47;;;;;;;12.69;100.00;100431.69;5054372;28;20045;-67
2023/09/28 05:47:35;;;;;;;6.00;4.40;;;;;;;12.72;100.00;100432.16;5054520;28;20036;-67
2023/09/28 05:50:02;;;;;;;4.95;4.22;;;;;;;12.72;100.00;100420.66;5054371;28;20071;-67
2023/09/28 05:52:28;;;;;;;5.70;4.78;;;;;;;12.79;100.00;100420.75;5054290;28;20107;-67
2023/09/28 05:54:53;;;;;;;6.35;5.55;;;;;;;12.80;100.00;100420.56;5054064;28;20455;-68
2023/09/28 05:57:22;;;;;;;7.13;4.55;;;;;;;12.82;100.00;100415.03;5054102;28;20045;-67
2023/09/28 05:59:47;;;;;;;5.30;4.80;;;;;;;12.83;100.00;100416.69;5054245;28;20028;-67
2023/09/28 06:02:13;;;;;;;5.68;4.95;;;;;;;12.84;100.00;100413.00;5054087;28;20385;-67
2023/09/28 06:04:38;;;;;;;6.07;4.93;;;;;;;12.82;100.00;100409.69;5053888;28;20053;-67
2023/09/28 06:07:04;;;;;;;5.70;4.90;;;;;;;12.81;100.00;100408.03;5054031;28;20123;-67
2023/09/28 06:09:29;;;;;;;5.30;4.40;;;;;;;12.84;100.00;100400.44;5054062;28;20036;-67
2023/09/28 06:11:57;;;;;;;6.75;5.60;;;;;;;12.83;100.00;100408.66;5053905;28;20079;-67
2023/09/28 06:14:22;;;;;;;;;;;;;;;12.84;100.00;100413.00;5054256;28;20071;-67
2023/09/28 06:16:48;;;;;;;6.80;4.47;;;;;;;12.83;100.00;100411.34;5053806;28;19960;-67
2023/09/28 06:19:14;;;;;;;7.70;4.80;;;;;;;12.85;100.00;100420.84;5053908;28;20052;-67
2023/09/28 06:21:39;;;;;;;5.47;4.03;;;;;;;12.87;100.00;100410.78;5053576;28;20041;-64
2023/09/28 06:24:05;;;;;;;6.60;4.50;;;;;;;12.90;100.00;100414.94;5053522;28;20041;-64
2023/09/28 06:26:31;;;;;;;7.20;4.32;;;;;;;12.94;100.00;100418.91;5053541;28;20037;-64
2023/09/28 06:28:58;;;;;;;6.85;4.28;;;;;;;13.00;100.00;100428.88;5053603;28;20074;-64
2023/09/28 06:31:23;;;;;;;5.43;4.10;;;;;;;13.06;100.00;100422.78;5053687;28;20036;-64
2023/09/28 06:33:49;;;;;;;5.55;4.63;;;;;;;13.14;100.00;100429.88;5053414;28;20116;-64
2023/09/28 06:36:16;;;;;;;5.07;4.53;;;;;;;13.18;100.00;100429.31;5053478;28;20040;-64
2023/09/28 06:38:41;;;;;;;6.18;5.40;;;;;;;13.24;100.00;100431.28;5053536;28;20568;-64
2023/09/28 06:41:07;;;;;;;6.00;4.78;;;;;;;13.28;100.00;100439.75;5053334;28;20139;-63
2023/09/28 06:43:32;;;;;;;5.75;5.25;;;;;;;13.35;100.00;100439.84;5052756;28;20044;-64
2023/09/28 06:45:58;;;;;;;9.18;5.72;;;;;;;13.40;100.00;100442.78;5052619;28;20508;-64
2023/09/28 06:48:26;;;;;;;8.65;5.93;;;;;;;13.47;100.00;100444.53;5053375;28;20399;-64
2023/09/28 06:50:53;;;;;;;6.38;5.53;;;;;;;13.57;100.00;100458.47;5053271;28;20447;-64
2023/09/28 06:53:19;;;;;;;20.30;6.13;;;;;;;13.69;100.00;100465.97;5052999;28;20033;-64
2023/09/28 06:55:44;;;;;;;5.93;4.72;;;;;;;13.78;100.00;100471.06;5053010;28;20522;-64
2023/09/28 06:58:13;;;;;;;5.63;4.78;;;;;;;13.86;100.00;100472.78;5053149;28;20126;-64
2023/09/28 07:00:39;;;;;;;6.07;4.97;;;;;;;13.98;100.00;100481.16;5053053;28;20086;-64
2023/09/28 07:03:05;;;;;;;5.55;4.70;;;;;;;14.06;100.00;100479.19;5052963;28;20501;-64
2023/09/28 07:05:33;;;;;;;6.57;4.78;;;;;;;14.17;100.00;100482.38;5052890;28;20167;-64
2023/09/28 07:07:59;;;;;;;5.80;4.30;;;;;;;14.24;100.00;100486.78;5052932;28;20047;-64
2023/09/28 07:10:25;;;;;;;5.72;4.50;;;;;;;14.35;100.00;100488.97;5052795;28;20037;-64
2023/09/28 07:12:50;;;;;;;6.97;4.63;;;;;;;14.45;100.00;100493.16;5052610;28;20130;-64
2023/09/28 07:15:16;;;;;;;7.85;4.63;;;;;;;14.54;100.00;100498.25;5052720;28;20112;-64
2023/09/28 07:17:42;;;;;;;5.78;4.75;;;;;;;14.63;100.00;100493.56;5052972;28;20128;-65
2023/09/28 07:20:08;;;;;;;11.40;4.50;;;;;;;14.78;100.00;100504.19;5052595;28;20507;-64
2023/09/28 07:22:34;;;;;;;4.80;4.07;;;;;;;14.86;100.00;100502.19;5052532;28;20084;-63
2023/09/28 07:24:59;;;;;;;6.85;4.47;;;;;;;15.00;100.00;100495.09;5052302;28;20064;-64
2023/09/28 07:27:31;;;;;;;5.82;4.25;;;;;;;15.09;100.00;100485.84;5052479;28;20041;-64
2023/09/28 07:29:57;;;;;;;7.32;4.20;;;;;;;15.33;100.00;100497.16;5052625;28;20051;-64
2023/09/28 07:32:22;;;;;;;6.43;3.90;;;;;;;15.40;100.00;100493.47;5052334;28;20484;-64
2023/09/28 07:34:48;;;;;;;5.70;4.30;;;;;;;15.54;100.00;100486.31;5052244;28;20090;-63
2023/09/28 07:37:15;;;;;;;5.80;4.35;;;;;;;15.64;100.00;100489.47;5052224;28;20048;-65
2023/09/28 07:39:40;;;;;;;4.97;3.55;;;;;;;15.73;100.00;100484.75;5058154;28;20029;-64
2023/09/28 07:42:08;;;;;;;4.75;3.67;;;;;;;15.92;100.00;100492.06;5062958;28;20451;-65
2023/09/28 07:44:34;;;;;;;5.85;3.97;;;;;;;16.10;100.00;100490.63;5061801;28;20408;-65
2023/09/28 07:47:00;;;;;;;7.72;4.00;;;;;;;16.22;100.00;100495.22;5060876;28;20024;-64
2023/09/28 07:49:25;;;;;;;5.10;3.90;;;;;;;16.26;100.00;100491.09;5062789;28;20487;-64
2023/09/28 07:51:52;;;;;;;5.18;4.13;;;;;;;16.33;100.00;100492.97;5061295;28;20037;-65
2023/09/28 07:54:18;;;;;;;6.72;3.90;;;;;;;16.38;100.00;100498.56;5060839;28;20462;-65
2023/09/28 07:56:43;;;;;;;4.68;3.75;;;;;;;16.43;100.00;100501.44;5062011;28;20060;-65
2023/09/28 07:59:09;;;;;;;5.25;3.75;;;;;;;16.48;100.00;100498.97;5060521;28;20115;-65
2023/09/28 08:01:38;;;;;;;5.43;3.90;;;;;;;16.53;100.00;100501.88;5061126;28;20032;-65
2023/09/28 08:04:04;;;;;;;4.60;3.72;;;;;;;16.66;100.00;100504.56;5060031;28;20037;-65
2023/09/28 08:06:30;;;;;;;5.13;4.07;;;;;;;16.80;100.00;100508.13;5062010;28;20033;-65
2023/09/28 08:08:55;;;;;;;3.90;3.33;;;;;;;16.87;100.00;100508.94;5060701;28;20067;-64
2023/09/28 08:11:20;;;;;;;4.47;3.58;;;;;;;16.97;100.00;100506.66;5061101;28;20139;-65
2023/09/28 08:13:46;;;;;;;5.28;3.63;;;;;;;17.13;100.00;100512.63;5062238;28;20024;-65
2023/09/28 08:16:11;;;;;;;5.50;3.45;;;;;;;17.19;99.50;100512.63;5059138;28;20112;-65
2023/09/28 08:18:37;;;;;;;5.78;3.38;;;;;;;17.26;99.58;100512.63;5063209;28;20032;-65
2023/09/28 08:21:03;;;;;;;4.55;3.67;;;;;;;17.35;100.00;100514.06;5060593;28;20039;-65
2023/09/28 08:23:32;;;;;;;5.10;3.45;;;;;;;17.40;97.55;100506.16;5063803;28;20033;-64
2023/09/28 08:25:57;;;;;;;5.22;3.85;;;;;;;17.64;94.53;100518.09;5071719;28;20548;-65
2023/09/28 08:28:24;;;;;;;6.22;3.22;;;;;;;17.76;93.99;100510.22;5071948;28;20033;-65
2023/09/28 08:30:49;;;;;;;5.78;3.70;;;;;;;17.87;95.25;100501.47;5071676;28;20036;-65
2023/09/28 08:33:16;;;;;;;6.88;3.40;;;;;;;17.97;95.03;100503.69;5065412;28;20039;-64
2023/09/28 08:35:47;;;;;;;5.73;3.20;;;;;;;18.19;90.87;100502.31;5059032;28;20037;-64
2023/09/28 08:38:13;;;;;;;6.82;3.42;;;;;;;18.36;89.07;100510.72;5060669;28;20836;-64
2023/09/28 08:40:39;;;;;;;5.53;2.80;;;;;;;18.37;90.09;100505.09;5062348;28;20123;-64
2023/09/28 08:43:10;;;;;;;5.00;3.17;;;;;;;18.50;87.36;100506.88;5061586;28;20043;-64
2023/09/28 08:45:38;;;;;;;6.70;3.05;;;;;;;18.67;87.09;100499.94;5061993;28;20094;-65
2023/09/28 08:48:06;;;;;;;3.50;2.55;;;;;;;18.73;87.79;100505.50;5060425;28;20048;-64
2023/09/28 08:50:35;;;;;;;5.20;3.55;;;;;;;18.79;86.94;100507.31;5060664;28;20040;-65
2023/09/28 08:53:02;;;;;;;5.50;2.65;;;;;;;18.89;85.76;100510.31;5061840;28;20449;-65
2023/09/28 08:55:28;;;;;;;5.00;2.83;;;;;;;18.99;84.89;100505.25;5060765;28;20531;-65
2023/09/28 08:57:55;;;;;;;4.88;3.13;;;;;;;19.16;84.25;100516.31;5066096;28;20128;-65
2023/09/28 09:00:24;;;;;;;4.90;2.75;;;;;;;19.29;83.57;100509.94;5071523;28;20407;-64
2023/09/28 09:02:51;;;;;;;3.90;2.70;;;;;;;19.39;84.16;100521.88;5069635;28;20452;-64
2023/09/28 09:05:17;;;;;;;5.10;2.83;;;;;;;19.45;82.23;100520.16;5064905;28;20131;-64
2023/09/28 09:07:43;;;;;;;3.50;2.67;;;;;;;19.49;81.90;100526.75;5060315;28;20498;-64
2023/09/28 09:10:12;;;;;;;5.78;3.38;;;;;;;19.66;82.13;100527.84;5064919;28;20041;-64
2023/09/28 09:12:37;;;;;;;4.10;2.92;;;;;;;20.05;78.00;100526.50;5063124;28;20025;-65
2023/09/28 09:15:04;;;;;;;4.68;2.50;;;;;;;20.26;76.58;100527.88;5061791;28;20039;-65
2023/09/28 09:17:33;;;;;;;3.30;2.38;;;;;;;20.48;76.32;100527.41;5055022;28;20043;-65
2023/09/28 09:19:59;;;;;;;5.07;2.40;;;;;;;20.63;74.74;100537.78;5055004;28;20075;-65
2023/09/28 09:22:28;;;;;;;5.07;2.78;;;;;;;20.64;75.83;100534.84;5054674;28;20036;-65
2023/09/28 09:24:54;;;;;;;4.30;3.15;;;;;;;20.79;75.26;100535.22;5054741;28;20044;-64
2023/09/28 09:27:32;;;;;;;5.45;2.63;;;;;;;20.81;76.16;100540.41;5054899;28;20048;-64
2023/09/28 09:29:58;;;;;;;;;;;;;;;21.06;75.15;100532.06;5055349;28;20381;-65
2023/09/28 09:32:25;;;;;;;5.15;3.00;;;;;;;21.25;75.56;100533.59;5054709;28;19923;-65
2023/09/28 09:34:54;;;;;;;;;;;;;;;21.44;71.95;100525.34;5055196;28;20376;-65
2023/09/28 09:37:20;;;;;;;4.25;2.70;;;;;;;21.52;69.43;100525.84;5054598;28;19919;-65
2023/09/28 09:39:46;;;;;;;3.20;2.42;;;;;;;21.59;69.36;100520.28;5053476;28;20033;-65
2023/09/28 09:42:11;;;;;;;4.43;2.78;;;;;;;21.95;68.85;100513.69;5055048;28;20031;-65
2023/09/28 09:44:37;;;;;;;4.53;2.60;;;;;;;22.14;68.49;100511.63;5054479;28;20120;-66
2023/09/28 09:47:03;;;;;;;5.63;2.72;;;;;;;22.53;68.80;100514.50;5054514;28;20439;-65
2023/09/28 09:49:31;;;;;;;4.53;2.50;;;;;;;22.97;65.97;100500.03;5054451;28;20047;-65
2023/09/28 09:52:00;;;;;;;5.93;2.40;;;;;;;23.31;60.94;100505.41;5071567;28;20068;-64
2023/09/28 09:54:26;;;;;;;4.57;2.97;;;;;;;23.63;60.55;100502.88;5063813;28;20036;-65
2023/09/28 09:56:52;;;;;;;4.25;2.33;;;;;;;23.98;58.76;100499.72;5054128;28;20064;-64
2023/09/28 09:59:20;;;;;;;5.20;2.90;;;;;;;24.47;56.61;100496.16;5054209;28;20065;-64
2023/09/28 10:01:53;;;;;;;4.97;2.28;;;;;;;24.96;56.20;100488.63;5054309;28;20546;-64
2023/09/28 10:04:21;;;;;;;4.10;2.17;;;;;;;25.44;52.45;100489.50;5053973;28;20037;-64
2023/09/28 10:06:51;;;;;;;4.57;2.50;;;;;;;25.89;51.00;100480.69;5054017;28;20029;-64
2023/09/28 10:09:18;;;;;;;3.70;2.25;;;;;;;26.19;48.86;100468.16;5052768;28;20458;-65
2023/09/28 10:11:47;;;;;;;4.93;2.45;;;;;;;26.76;46.70;100467.94;5053998;28;20186;-65
2023/09/28 10:14:15;;;;;;;5.35;2.63;;;;;;;27.01;45.60;100464.34;5053823;28;20041;-65
2023/09/28 10:16:42;;;;;;;3.88;2.25;;;;;;;27.09;46.41;100465.72;5053753;28;20037;-65
2023/09/28 10:19:10;;;;;;;4.70;2.50;;;;;;;27.46;44.83;100472.72;5054226;28;20047;-65
2023/09/28 10:21:37;;;;;;;4.75;2.60;;;;;;;27.64;47.63;100472.06;5053795;28;20039;-65
2023/09/28 10:24:09;;;;;;;2.42;2.22;;;;;;;27.69;43.76;100474.81;5053481;28;20041;-64
2023/09/28 10:26:35;;;;;;;3.00;2.30;;;;;;;27.83;42.99;100481.28;5053736;28;20052;-65
2023/09/28 10:29:06;;;;;;;4.03;2.33;;;;;;;27.72;45.73;100479.72;5053519;28;20033;-66
2023/09/28 10:31:32;;;;;;;4.32;2.42;;;;;;;28.34;42.73;100474.69;5073284;28;20067;-65
2023/09/28 10:34:03;;;;;;;3.63;2.50;;;;;;;28.84;41.78;100470.69;5073311;28;20492;-65
2023/09/28 10:36:30;;;;;;;5.07;2.50;;;;;;;29.38;42.77;100475.06;5073331;28;20380;-65
2023/09/28 10:39:15;;;;;;;6.75;2.50;;;;;;;29.74;41.12;100482.88;5073588;28;20483;-65
2023/09/28 10:41:53;;;;;;;5.05;2.83;;;;;;;30.02;41.15;100483.84;5073490;28;20093;-65
2023/09/28 10:44:20;;;;;;;5.40;3.13;;;;;;;29.69;41.37;100494.75;5073265;28;20530;-65
2023/09/28 10:46:51;;;;;;;5.90;2.40;;;;;;;30.28;39.72;100492.56;5073330;28;20032;-65
2023/09/28 10:49:24;;;;;;;3.55;2.53;;;;;;;30.39;39.49;100491.28;5072267;28;20453;-65
2023/09/28 10:51:51;;;;;;;4.15;2.30;;;;;;;30.46;40.67;100483.47;5073075;28;20040;-65
2023/09/28 10:54:17;;;;;;;8.45;2.53;;;;;;;30.79;40.60;100489.81;5071716;28;20490;-65
2023/09/28 10:56:42;;;;;;;3.85;2.42;;;;;;;31.24;38.13;100486.53;5073051;28;20063;-65
2023/09/28 10:59:09;;;;;;;3.13;2.13;;;;;;;30.77;39.95;100482.97;5073111;28;20098;-65
2023/09/28 11:01:41;;;;;;;3.45;2.40;;;;;;;30.73;38.12;100482.75;5073085;28;20032;-65
2023/09/28 11:04:08;;;;;;;3.25;2.42;;;;;;;31.53;37.44;100480.69;5072888;28;20036;-65
2023/09/28 11:06:34;;;;;;;3.38;2.33;;;;;;;31.63;36.54;100477.75;5072889;28;20036;-65
2023/09/28 11:09:02;;;;;;;3.40;2.17;;;;;;;31.11;34.99;100481.81;5072900;28;20718;-65
2023/09/28 11:11:29;;;;;;;3.38;2.13;;;;;;;31.90;34.12;100484.34;5072928;28;20047;-65
2023/09/28 11:14:00;;;;;;;3.63;2.38;;;;;;;31.70;34.67;100480.06;5072633;28;20055;-65
2023/09/28 11:16:27;;;;;;;3.45;2.17;;;;;;;32.45;34.18;100473.94;5072353;28;20629;-65
2023/09/28 11:18:55;;;;;;;3.25;2.60;;;;;;;32.12;34.32;100476.09;5072825;28;20117;-65
2023/09/28 11:21:21;;;;;;;3.08;2.40;;;;;;;32.51;33.16;100469.13;5072542;28;20036;-65
2023/09/28 11:23:48;;;;;;;3.03;2.42;;;;;;;32.47;32.24;100471.69;5072380;28;20025;-65
2023/09/28 11:26:14;;;;;;;6.03;2.92;;;;;;;33.24;31.56;100477.94;5071301;28;20396;-65
2023/09/28 11:28:40;;;;;;;3.00;2.27;;;;;;;33.25;31.19;100485.09;5072515;28;20051;-65
2023/09/28 11:31:11;;;;;;;4.47;2.23;;;;;;;32.61;31.95;100471.63;5072025;28;20333;-65
2023/09/28 11:33:38;;;;;;;3.15;2.15;;;;;;;33.35;30.74;100458.03;5072337;28;20166;-65
2023/09/28 11:36:05;;;;;;;4.30;2.33;;;;;;;33.22;30.76;100461.72;5072310;28;20056;-65
2023/09/28 11:38:32;;;;;;;3.28;2.15;;;;;;;32.85;30.70;100462.97;5064024;28;20039;-64
2023/09/28 11:40:58;;;;;;;5.05;2.67;;;;;;;33.11;30.79;100452.91;5062983;28;20029;-65
2023/09/28 11:43:23;;;;;;;3.97;2.50;;;;;;;33.02;31.85;100445.75;5061231;28;20036;-65
2023/09/28 11:45:50;;;;;;;4.30;2.67;;;;;;;33.18;30.73;100433.94;5061638;28;20287;-65
2023/09/28 11:48:20;;;;;;;3.63;2.30;;;;;;;33.23;30.04;100441.25;5062785;28;20499;-66
2023/09/28 11:50:46;;;;;;;5.55;2.50;;;;;;;32.47;31.12;100438.59;5061497;28;20087;-65
2023/09/28 11:53:11;;;;;;;4.05;2.35;;;;;;;32.86;31.25;100434.25;5061051;28;20032;-65
2023/09/28 11:55:41;;;;;;;3.10;2.50;;;;;;;33.20;30.10;100426.16;5062673;28;20064;-65
2023/09/28 11:58:10;;;;;;;4.43;2.67;;;;;;;34.10;29.67;100416.53;5062847;28;20028;-65
2023/09/28 12:00:38;;;;;;;5.13;2.42;;;;;;;33.50;30.53;100426.41;5056980;28;20125;-65
2023/09/28 12:03:04;;;;;;;3.97;2.72;;;;;;;33.54;30.25;100421.88;5060577;28;20063;-65
2023/09/28 12:05:31;;;;;;;3.38;2.58;;;;;;;33.63;30.87;100425.44;5061830;28;20115;-64
2023/09/28 12:07:57;;;;;;;4.53;2.85;;;;;;;33.43;31.26;100428.84;5071663;28;20052;-64
2023/09/28 12:10:23;;;;;;;4.10;2.72;;;;;;;33.38;31.02;100417.91;5071725;28;20043;-65
2023/09/28 12:12:48;;;;;;;3.53;2.60;;;;;;;33.31;31.69;100421.16;5071100;28;20040;-64
2023/09/28 12:15:17;;;;;;;3.17;2.53;;;;;;;33.99;30.62;100421.59;5071614;28;20028;-64
2023/09/28 12:17:43;;;;;;;5.30;3.20;;;;;;;33.53;30.02;100411.16;5071821;28;20051;-65
2023/09/28 12:20:12;;;;;;;4.30;2.40;;;;;;;32.45;31.63;100418.00;5070302;28;20573;-64
2023/09/28 12:22:39;;;;;;;4.22;2.80;;;;;;;32.07;32.51;100419.19;5071460;28;20491;-64
2023/09/28 12:25:05;;;;;;;3.05;2.42;;;;;;;32.65;32.59;100432.06;5069888;28;20388;-64
2023/09/28 12:27:35;;;;;;;4.35;3.10;;;;;;;33.60;31.27;100414.25;5071827;28;20037;-64
2023/09/28 12:30:02;;;;;;;5.97;2.50;;;;;;;33.04;31.38;100419.44;5071955;28;20120;-65
2023/09/28 12:32:29;;;;;;;7.10;2.83;;;;;;;33.62;31.57;100409.22;5071707;28;20466;-64
2023/09/28 12:34:56;;;;;;;4.93;2.65;;;;;;;33.48;30.73;100407.41;5071502;28;20071;-64
2023/09/28 12:37:21;;;;;;;4.65;2.70;;;;;;;33.90;30.18;100401.41;5071614;28;20090;-64
2023/09/28 12:39:48;;;;;;;6.53;2.93;;;;;;;33.14;31.84;100404.56;5068552;28;20028;-64
2023/09/28 12:42:15;;;;;;;4.40;2.80;;;;;;;32.92;31.54;100388.91;5060670;28;20373;-64
2023/09/28 12:44:42;;;;;;;4.80;2.67;;;;;;;32.81;32.21;100393.06;5065091;28;20029;-64
2023/09/28 12:47:09;;;;;;;4.10;2.92;;;;;;;33.00;32.23;100384.56;5066113;28;20115;-63
2023/09/28 12:49:35;;;;;;;4.20;3.42;;;;;;;32.82;32.30;100383.66;5063977;28;20041;-64
2023/09/28 12:52:01;;;;;;;3.75;2.53;;;;;;;33.50;31.33;100385.00;5064119;28;20033;-64
2023/09/28 12:54:27;;;;;;;4.28;2.42;;;;;;;33.04;32.61;100378.06;5065434;28;20082;-65
2023/09/28 12:56:52;;;;;;;3.23;2.73;;;;;;;32.89;32.32;100373.81;5063912;28;20028;-66
2023/09/28 12:59:18;;;;;;;5.50;2.47;;;;;;;32.83;32.94;100379.75;5065625;28;20036;-49
2023/09/28 13:01:46;;;;;;;5.60;3.00;;;;;;;32.58;31.86;100378.50;5065084;28;20033;-48
2023/09/28 13:04:11;;;;;;;4.90;3.30;;;;;;;32.18;32.04;100369.34;5063506;28;20037;-47
2023/09/28 13:06:37;;;;;;;4.80;3.07;;;;;;;32.01;32.15;100364.53;5065501;28;20043;-45
2023/09/28 13:09:06;;;;;;;3.90;3.20;;;;;;;31.96;32.12;100359.16;5064883;28;20040;-46
2023/09/28 13:11:33;;;;;;;4.45;3.50;;;;;;;32.00;33.21;100352.69;5063274;28;20028;-49
2023/09/28 13:13:58;;;;;;;5.43;2.72;;;;;;;32.25;33.21;100350.44;5063797;28;20094;-64
2023/09/28 13:16:24;;;;;;;5.20;2.47;;;;;;;32.68;32.92;100359.75;5064458;28;20048;-64
2023/09/28 13:18:50;;;;;;;4.88;2.50;;;;;;;32.39;32.76;100342.91;5065582;28;20044;-64
2023/09/28 13:21:15;;;;;;;4.77;3.07;;;;;;;32.94;32.62;100346.09;5063544;28;20029;-64
2023/09/28 13:23:41;;;;;;;3.10;2.27;;;;;;;32.86;31.77;100351.53;5064470;28;20487;-63
2023/09/28 13:26:08;;;;;;;3.73;2.30;;;;;;;32.56;32.28;100351.28;5064958;28;20086;-64
2023/09/28 13:28:34;;;;;;;4.82;2.83;;;;;;;33.04;31.90;100353.22;5063280;28;20392;-64
2023/09/28 13:31:05;;;;;;;4.30;2.65;;;;;;;33.39;31.92;100354.16;5064755;28;20064;-64
2023/09/28 13:33:37;;;;;;;3.85;2.83;;;;;;;33.38;31.72;100355.22;5064970;28;20066;-53
2023/09/28 13:36:05;;;;;;;4.32;2.53;;;;;;;33.61;30.94;100353.19;5064245;28;20445;-64
2023/09/28 13:38:32;;;;;;;4.55;2.70;;;;;;;33.05;32.32;100345.78;5074743;28;20055;-63
2023/09/28 13:40:58;;;;;;;4.63;2.80;;;;;;;33.05;31.21;100349.34;5074603;28;20028;-63
2023/09/28 13:43:24;;;;;;;5.63;2.60;;;;;;;32.55;32.09;100344.13;5065530;28;20041;-63
2023/09/28 13:45:49;;;;;;;3.63;2.70;;;;;;;32.57;33.79;100339.09;5059396;28;20107;-63
2023/09/28 13:48:15;;;;;;;4.03;3.33;;;;;;;31.83;32.30;100336.88;5054441;28;20045;-63
2023/09/28 13:50:40;;;;;;;6.00;2.97;;;;;;;31.35;32.97;100342.09;5054423;28;20040;-64
2023/09/28 13:53:06;;;;;;;3.63;2.67;;;;;;;30.91;33.77;100338.09;5053677;28;20123;-63
2023/09/28 13:55:33;;;;;;;3.90;2.55;;;;;;;30.65;34.42;100331.44;5054265;28;20069;-63
2023/09/28 13:57:59;;;;;;;5.25;2.90;;;;;;;30.64;34.79;100332.53;5054335;28;20029;-63
2023/09/28 14:02:54;;;;;;;5.20;2.72;;;;;;;29.83;35.48;100330.09;5073816;28;20514;-63
2023/09/28 14:05:20;;;;;;;5.47;3.33;;;;;;;29.53;36.00;100325.09;5074054;28;20029;-63
2023/09/28 14:07:46;;;;;;;4.47;2.35;;;;;;;29.67;35.50;100326.00;5072890;28;20048;-63
2023/09/28 14:10:12;;;;;;;3.97;2.33;;;;;;;29.39;35.54;100325.00;5074119;28;20032;-63
2023/09/28 14:12:39;;;;;;;3.35;2.30;;;;;;;29.25;35.34;100327.66;5073658;28;20037;-64
2023/09/28 14:15:06;;;;;;;4.72;2.83;;;;;;;29.02;36.83;100332.09;5073793;28;20119;-64
2023/09/28 14:17:33;;;;;;;5.85;2.92;;;;;;;28.99;36.20;100323.63;5073655;28;20040;-64
2023/09/28 14:20:00;;;;;;;5.10;2.50;;;;;;;28.82;37.86;100327.66;5073844;28;20032;-63
2023/09/28 14:22:25;;;;;;;4.88;3.22;;;;;;;28.78;37.60;100331.25;5073693;28;20174;-58
2023/09/28 14:24:51;;;;;;;4.80;2.72;;;;;;;28.69;38.54;100327.50;5073529;28;20123;-58
2023/09/28 14:27:17;;;;;;;3.38;2.45;;;;;;;28.55;38.75;100319.16;5073671;28;20036;-60
2023/09/28 14:29:42;;;;;;;4.35;2.50;;;;;;;28.60;38.80;100319.94;5073687;28;20396;-60
2023/09/28 14:32:07;;;;;;;6.68;2.78;;;;;;;28.43;38.49;100318.75;5073354;28;20446;-60
2023/09/28 14:34:33;;;;;;;3.60;2.85;;;;;;;28.41;38.63;100318.25;5073354;28;20123;-50
2023/09/28 14:36:58;;;;;;;5.53;2.75;;;;;;;28.31;38.03;100322.72;5073501;28;20064;-47
2023/09/28 14:39:24;;;;;;;4.13;2.55;;;;;;;28.12;38.83;100330.00;5073517;28;20091;-47
2023/09/28 14:41:49;;;;;;;4.47;2.35;;;;;;;28.13;43.25;100326.16;5073390;28;20095;-46
2023/09/28 14:44:15;;;;;;;5.57;2.55;;;;;;;27.99;43.04;100333.41;5073100;28;20119;-46
2023/09/28 14:46:40;;;;;;;3.90;2.38;;;;;;;27.87;41.64;100327.47;5073074;28;20047;-46
2023/09/28 14:49:05;;;;;;;4.82;2.50;;;;;;;27.83;42.59;100321.75;5073190;28;20033;-48
2023/09/28 14:51:31;;;;;;;12.73;2.63;;;;;;;27.77;42.19;100325.63;5072972;28;20036;-49
2023/09/28 14:53:57;;;;;;;3.63;2.60;;;;;;;27.62;39.63;100322.97;5072751;28;20450;-54
2023/09/28 14:56:22;;;;;;;3.55;2.60;;;;;;;27.55;39.27;100326.03;5073103;28;20036;-46
2023/09/28 14:58:48;;;;;;;5.38;2.10;;;;;;;27.48;39.91;100320.06;5073012;28;20036;-48
2023/09/28 15:01:13;;;;;;;4.20;2.30;;;;;;;27.43;40.28;100323.63;5072960;28;20032;-49
2023/09/28 15:03:39;;;;;;;4.32;2.70;;;;;;;27.42;40.51;100321.19;5072813;28;20491;-49
2023/09/28 15:06:08;;;;;;;4.93;2.95;;;;;;;27.39;39.69;100310.84;5071851;28;20032;-49
2023/09/28 15:08:34;;;;;;;4.82;2.58;;;;;;;27.35;39.42;100315.22;5072854;28;20050;-51
2023/09/28 15:11:00;;;;;;;6.45;2.70;;;;;;;27.30;41.18;100311.41;5072846;28;20111;-51
2023/09/28 15:13:26;;;;;;;4.45;2.40;;;;;;;27.22;43.33;100311.19;5072473;28;20060;-47
2023/09/28 15:15:52;;;;;;;4.15;2.50;;;;;;;27.17;39.83;100306.56;5072548;28;20511;-47
2023/09/28 15:18:17;;;;;;;4.97;2.30;;;;;;;27.19;39.40;100304.38;5072704;28;20503;-51
2023/09/28 15:20:43;;;;;;;3.38;2.30;;;;;;;27.14;39.59;100304.41;5072460;28;20123;-47
2023/09/28 15:23:09;;;;;;;3.08;2.22;;;;;;;27.13;39.12;100297.31;5072323;28;20044;-47
2023/09/28 15:25:35;;;;;;;4.10;2.45;;;;;;;27.13;38.11;100300.03;5072493;28;20037;-49
2023/09/28 15:28:01;;;;;;;7.32;2.42;;;;;;;27.11;42.28;100299.50;5072472;28;20032;-47
2023/09/28 15:30:26;;;;;;;4.25;2.55;;;;;;;26.87;41.39;100301.25;5072529;28;20543;-48
2023/09/28 15:32:52;;;;;;;3.58;1.95;;;;;;;26.87;43.41;100296.59;5072113;28;20048;-48
2023/09/28 15:35:19;;;;;;;3.03;2.03;;;;;;;26.69;42.94;100292.56;5072280;28;20037;-53
2023/09/28 15:37:45;;;;;;;5.43;2.30;;;;;;;26.55;40.47;100296.97;5072309;28;20058;-50
2023/09/28 15:40:11;;;;;;;4.05;2.35;;;;;;;26.61;42.36;100292.31;5072305;28;20495;-48
2023/09/28 15:42:36;;;;;;;3.97;2.20;;;;;;;26.60;40.35;100298.84;5072172;28;20078;-50